sensor_id;sensor_type;location;lat;lon;timestamp;pressure;altitude;pressure_sealevel;temperature;humidity
31337;BME280;22846;42.654;23.314;2024-03-02T00:01:10;93926.16;;;25.28;54.98
31337;BME280;22846;42.654;23.314;2024-03-02T00:03:37;93941.66;;;25.31;54.71
31337;BME280;22846;42.654;23.314;2024-03-02T00:06:03;93948.03;;;25.28;54.54
31337;BME280;22846;42.654;23.314;2024-03-02T00:08:29;93945.44;;;25.25;54.56
31337;BME280;22846;42.654;23.314;2024-03-02T00:10:58;93940.56;;;25.20;54.51
31337;BME280;22846;42.654;23.314;2024-03-02T00:13:24;93943.31;;;25.20;54.90
31337;BME280;22846;42.654;23.314;2024-03-02T00:16:08;93938.63;;;25.20;55.51
31337;BME280;22846;42.654;23.314;2024-03-02T00:18:37;93935.13;;;25.20;55.54
31337;BME280;22846;42.654;23.314;2024-03-02T00:21:03;93938.47;;;25.24;55.32
31337;BME280;22846;42.654;23.314;2024-03-02T00:23:32;93940.72;;;25.25;55.69
31337;BME280;22846;42.654;23.314;2024-03-02T00:25:58;93930.41;;;25.29;55.24
31337;BME280;22846;42.654;23.314;2024-03-02T00:28:33;93933.88;;;25.30;55.24
31337;BME280;22846;42.654;23.314;2024-03-02T00:31:01;93928.25;;;25.33;55.42
31337;BME280;22846;42.654;23.314;2024-03-02T00:33:35;93932.50;;;25.34;55.23
31337;BME280;22846;42.654;23.314;2024-03-02T00:36:05;93922.63;;;25.37;55.15
31337;BME280;22846;42.654;23.314;2024-03-02T00:38:32;93925.34;;;25.37;54.34
31337;BME280;22846;42.654;23.314;2024-03-02T00:41:04;93925.50;;;25.33;54.34
31337;BME280;22846;42.654;23.314;2024-03-02T00:46:08;93930.84;;;25.28;54.92
31337;BME280;22846;42.654;23.314;2024-03-02T00:48:33;93918.84;;;25.25;54.52
31337;BME280;22846;42.654;23.314;2024-03-02T00:51:03;93928.25;;;25.24;55.74
31337;BME280;22846;42.654;23.314;2024-03-02T00:53:31;93925.09;;;25.26;55.34
31337;BME280;22846;42.654;23.314;2024-03-02T00:56:01;93928.09;;;25.28;55.55
31337;BME280;22846;42.654;23.314;2024-03-02T00:58:26;93926.63;;;25.27;55.24
31337;BME280;22846;42.654;23.314;2024-03-02T01:00:52;93925.22;;;25.31;55.31
31337;BME280;22846;42.654;23.314;2024-03-02T01:03:17;93922.03;;;25.33;55.51
31337;BME280;22846;42.654;23.314;2024-03-02T01:05:44;93926.88;;;25.38;55.43
31337;BME280;22846;42.654;23.314;2024-03-02T01:08:10;93928.69;;;25.41;55.38
31337;BME280;22846;42.654;23.314;2024-03-02T01:10:36;93922.75;;;25.42;55.69
31337;BME280;22846;42.654;23.314;2024-03-02T01:13:02;93919.84;;;25.46;55.16
31337;BME280;22846;42.654;23.314;2024-03-02T01:15:27;93919.56;;;25.44;54.21
31337;BME280;22846;42.654;23.314;2024-03-02T01:17:53;93918.22;;;25.39;54.36
31337;BME280;22846;42.654;23.314;2024-03-02T01:20:18;93908.81;;;25.31;55.19
31337;BME280;22846;42.654;23.314;2024-03-02T01:22:43;93913.81;;;25.33;54.90
31337;BME280;22846;42.654;23.314;2024-03-02T01:25:09;93898.03;;;25.28;54.81
31337;BME280;22846;42.654;23.314;2024-03-02T01:27:34;93898.31;;;25.30;55.74
31337;BME280;22846;42.654;23.314;2024-03-02T01:30:00;93906.84;;;25.32;55.82
31337;BME280;22846;42.654;23.314;2024-03-02T01:32:25;93902.59;;;25.31;54.76
31337;BME280;22846;42.654;23.314;2024-03-02T01:34:51;93903.78;;;25.30;54.63
31337;BME280;22846;42.654;23.314;2024-03-02T01:37:16;93901.22;;;25.26;54.74
31337;BME280;22846;42.654;23.314;2024-03-02T01:39:41;93904.44;;;25.25;54.96
31337;BME280;22846;42.654;23.314;2024-03-02T01:42:07;93908.38;;;25.24;55.28
31337;BME280;22846;42.654;23.314;2024-03-02T01:44:32;93914.31;;;25.22;55.83
31337;BME280;22846;42.654;23.314;2024-03-02T01:46:58;93907.91;;;25.25;55.46
31337;BME280;22846;42.654;23.314;2024-03-02T01:49:23;93902.75;;;25.27;55.52
31337;BME280;22846;42.654;23.314;2024-03-02T01:51:48;93903.78;;;25.30;55.65
31337;BME280;22846;42.654;23.314;2024-03-02T01:54:14;93895.59;;;25.30;54.75
31337;BME280;22846;42.654;23.314;2024-03-02T01:56:39;93899.53;;;25.29;54.29
31337;BME280;22846;42.654;23.314;2024-03-02T01:59:05;93892.28;;;25.26;55.00
31337;BME280;22846;42.654;23.314;2024-03-02T02:01:31;93895.44;;;25.24;55.21
31337;BME280;22846;42.654;23.314;2024-03-02T02:03:56;93895.91;;;25.23;54.88
31337;BME280;22846;42.654;23.314;2024-03-02T02:06:22;93900.66;;;25.22;55.77
31337;BME280;22846;42.654;23.314;2024-03-02T02:08:47;93882.75;;;25.12;55.69
31337;BME280;22846;42.654;23.314;2024-03-02T02:11:16;93891.19;;;25.23;55.80
31337;BME280;22846;42.654;23.314;2024-03-02T02:13:42;93897.59;;;25.29;55.61
31337;BME280;22846;42.654;23.314;2024-03-02T02:16:08;93888.47;;;25.23;54.92
31337;BME280;22846;42.654;23.314;2024-03-02T02:18:33;93899.25;;;25.27;54.43
31337;BME280;22846;42.654;23.314;2024-03-02T02:20:59;93900.19;;;25.24;54.72
31337;BME280;22846;42.654;23.314;2024-03-02T02:23:24;93897.91;;;25.22;55.21
31337;BME280;22846;42.654;23.314;2024-03-02T02:25:49;93895.63;;;25.21;55.18
31337;BME280;22846;42.654;23.314;2024-03-02T02:28:15;93898.34;;;25.21;55.95
31337;BME280;22846;42.654;23.314;2024-03-02T02:30:40;93893.34;;;25.19;55.66
31337;BME280;22846;42.654;23.314;2024-03-02T02:33:06;93876.81;;;25.14;55.83
31337;BME280;22846;42.654;23.314;2024-03-02T02:35:31;93889.06;;;25.27;55.07
31337;BME280;22846;42.654;23.314;2024-03-02T02:37:57;93891.50;;;25.25;55.50
31337;BME280;22846;42.654;23.314;2024-03-02T02:40:24;93896.22;;;25.25;55.39
31337;BME280;22846;42.654;23.314;2024-03-02T02:42:50;93886.38;;;25.18;55.53
31337;BME280;22846;42.654;23.314;2024-03-02T02:45:17;93897.75;;;25.17;55.71
31337;BME280;22846;42.654;23.314;2024-03-02T02:47:44;93900.03;;;25.18;55.54
31337;BME280;22846;42.654;23.314;2024-03-02T02:50:10;93898.03;;;25.19;56.07
31337;BME280;22846;42.654;23.314;2024-03-02T02:52:37;93904.88;;;25.23;55.66
31337;BME280;22846;42.654;23.314;2024-03-02T02:55:06;93886.38;;;25.18;55.91
31337;BME280;22846;42.654;23.314;2024-03-02T02:57:32;93902.59;;;25.31;55.77
31337;BME280;22846;42.654;23.314;2024-03-02T03:00:02;93897.88;;;25.31;55.63
31337;BME280;22846;42.654;23.314;2024-03-02T03:02:30;93884.34;;;25.28;55.75
31337;BME280;22846;42.654;23.314;2024-03-02T03:04:56;93896.34;;;25.39;55.83
31337;BME280;22846;42.654;23.314;2024-03-02T03:07:22;93898.91;;;25.43;55.63
31337;BME280;22846;42.654;23.314;2024-03-02T03:09:48;93895.22;;;25.46;55.53
31337;BME280;22846;42.654;23.314;2024-03-02T03:12:13;93902.22;;;25.47;54.85
31337;BME280;22846;42.654;23.314;2024-03-02T03:14:40;93905.91;;;25.44;54.14
31337;BME280;22846;42.654;23.314;2024-03-02T03:17:06;93894.03;;;25.38;55.17
31337;BME280;22846;42.654;23.314;2024-03-02T03:19:33;93900.72;;;25.37;55.16
31337;BME280;22846;42.654;23.314;2024-03-02T03:21:58;93898.47;;;25.35;55.31
31337;BME280;22846;42.654;23.314;2024-03-02T03:24:24;93901.66;;;25.34;55.52
31337;BME280;22846;42.654;23.314;2024-03-02T03:26:49;93891.94;;;25.33;55.60
31337;BME280;22846;42.654;23.314;2024-03-02T03:29:14;93896.50;;;25.36;55.46
31337;BME280;22846;42.654;23.314;2024-03-02T03:31:40;93897.72;;;25.35;55.00
31337;BME280;22846;42.654;23.314;2024-03-02T03:34:05;93897.41;;;25.33;54.96
31337;BME280;22846;42.654;23.314;2024-03-02T03:36:31;93901.53;;;25.28;55.43
31337;BME280;22846;42.654;23.314;2024-03-02T03:38:56;93903.50;;;25.28;55.48
31337;BME280;22846;42.654;23.314;2024-03-02T03:41:22;93904.72;;;25.27;55.27
31337;BME280;22846;42.654;23.314;2024-03-02T03:43:48;93903.97;;;25.26;55.46
31337;BME280;22846;42.654;23.314;2024-03-02T03:46:13;93898.03;;;25.28;55.84
31337;BME280;22846;42.654;23.314;2024-03-02T03:48:39;93903.78;;;25.30;55.86
31337;BME280;22846;42.654;23.314;2024-03-02T03:51:04;93901.97;;;25.36;55.70
31337;BME280;22846;42.654;23.314;2024-03-02T03:53:29;93902.72;;;25.36;55.19
31337;BME280;22846;42.654;23.314;2024-03-02T03:55:55;93895.44;;;25.33;55.56
31337;BME280;22846;42.654;23.314;2024-03-02T03:58:20;93906.84;;;25.32;54.76
31337;BME280;22846;42.654;23.314;2024-03-02T04:00:46;93899.25;;;25.27;55.17
31337;BME280;22846;42.654;23.314;2024-03-02T04:03:11;93907.47;;;25.27;55.42
31337;BME280;22846;42.654;23.314;2024-03-02T04:05:37;93903.97;;;25.26;55.35
31337;BME280;22846;42.654;23.314;2024-03-02T04:08:03;93904.25;;;25.28;55.56
31337;BME280;22846;42.654;23.314;2024-03-02T04:10:29;93899.09;;;25.30;55.40
31337;BME280;22846;42.654;23.314;2024-03-02T04:12:55;93902.09;;;25.32;55.46
31337;BME280;22846;42.654;23.314;2024-03-02T04:15:21;93899.25;;;25.36;54.74
31337;BME280;22846;42.654;23.314;2024-03-02T04:17:48;93895.91;;;25.32;54.01
31337;BME280;22846;42.654;23.314;2024-03-02T04:20:13;93903.06;;;25.29;54.34
31337;BME280;22846;42.654;23.314;2024-03-02T04:22:39;93893.31;;;25.28;54.57
31337;BME280;22846;42.654;23.314;2024-03-02T04:25:04;93886.66;;;25.20;54.99
31337;BME280;22846;42.654;23.314;2024-03-02T04:27:31;93902.28;;;25.29;55.16
31337;BME280;22846;42.654;23.314;2024-03-02T04:29:59;93905.00;;;25.29;55.53
31337;BME280;22846;42.654;23.314;2024-03-02T04:32:26;93903.63;;;25.33;55.49
31337;BME280;22846;42.654;23.314;2024-03-02T04:34:51;93914.41;;;25.37;55.08
31337;BME280;22846;42.654;23.314;2024-03-02T04:37:17;93910.19;;;25.36;54.63
31337;BME280;22846;42.654;23.314;2024-03-02T04:39:42;93910.31;;;25.32;54.45
31337;BME280;22846;42.654;23.314;2024-03-02T04:42:07;93908.53;;;25.29;54.66
31337;BME280;22846;42.654;23.314;2024-03-02T04:44:33;93905.16;;;25.25;55.05
31337;BME280;22846;42.654;23.314;2024-03-02T04:46:58;93909.44;;;25.26;55.36
31337;BME280;22846;42.654;23.314;2024-03-02T04:49:24;93903.22;;;25.26;55.17
31337;BME280;22846;42.654;23.314;2024-03-02T04:51:49;93911.69;;;25.28;55.69
31337;BME280;22846;42.654;23.314;2024-03-02T04:54:14;93911.56;;;25.31;55.16
31337;BME280;22846;42.654;23.314;2024-03-02T04:56:40;93909.88;;;25.34;55.19
31337;BME280;22846;42.654;23.314;2024-03-02T04:59:10;93914.56;;;25.33;54.62
31337;BME280;22846;42.654;23.314;2024-03-02T05:01:35;93915.50;;;25.30;54.62
31337;BME280;22846;42.654;23.314;2024-03-02T05:04:01;93908.97;;;25.28;54.73
31337;BME280;22846;42.654;23.314;2024-03-02T05:06:26;93915.69;;;25.27;55.17
31337;BME280;22846;42.654;23.314;2024-03-02T05:08:51;93918.84;;;25.25;55.24
31337;BME280;22846;42.654;23.314;2024-03-02T05:11:17;93915.06;;;25.23;55.16
31337;BME280;22846;42.654;23.314;2024-03-02T05:14:15;93928.88;;;25.28;55.44
31337;BME280;22846;42.654;23.314;2024-03-02T05:16:40;93928.25;;;25.33;55.21
31337;BME280;22846;42.654;23.314;2024-03-02T05:19:07;93929.31;;;25.36;55.21
31337;BME280;22846;42.654;23.314;2024-03-02T05:21:33;93930.25;;;25.33;54.70
31337;BME280;22846;42.654;23.314;2024-03-02T05:23:58;93931.16;;;25.30;54.89
31337;BME280;22846;42.654;23.314;2024-03-02T05:26:24;93928.09;;;25.28;54.78
31337;BME280;22846;42.654;23.314;2024-03-02T05:28:49;93936.03;;;25.26;54.88
31337;BME280;22846;42.654;23.314;2024-03-02T05:31:15;93936.63;;;25.21;54.78
31337;BME280;22846;42.654;23.314;2024-03-02T05:33:42;93944.25;;;25.26;55.25
31337;BME280;22846;42.654;23.314;2024-03-02T05:36:07;93926.91;;;25.20;55.16
31337;BME280;22846;42.654;23.314;2024-03-02T05:38:35;93946.66;;;25.33;55.32
31337;BME280;22846;42.654;23.314;2024-03-02T05:41:01;93952.25;;;25.38;55.12
31337;BME280;22846;42.654;23.314;2024-03-02T05:43:26;93957.25;;;25.40;54.53
31337;BME280;22846;42.654;23.314;2024-03-02T05:45:52;93958.16;;;25.37;54.58
31337;BME280;22846;42.654;23.314;2024-03-02T05:48:17;93958.34;;;25.33;54.25
31337;BME280;22846;42.654;23.314;2024-03-02T05:50:43;93956.06;;;25.32;54.76
31337;BME280;22846;42.654;23.314;2024-03-02T05:53:08;93960.91;;;25.28;54.95
31337;BME280;22846;42.654;23.314;2024-03-02T05:55:33;93963.22;;;25.29;54.87
31337;BME280;22846;42.654;23.314;2024-03-02T05:57:59;93969.00;;;25.31;54.91
31337;BME280;22846;42.654;23.314;2024-03-02T06:00:44;93968.84;;;25.35;55.11
31337;BME280;22846;42.654;23.314;2024-03-02T06:03:10;93965.94;;;25.38;54.83
31337;BME280;22846;42.654;23.314;2024-03-02T06:05:35;93961.81;;;25.43;54.77
31337;BME280;22846;42.654;23.314;2024-03-02T06:08:01;93960.31;;;25.42;54.79
31337;BME280;22846;42.654;23.314;2024-03-02T06:10:26;93961.22;;;25.39;54.46
31337;BME280;22846;42.654;23.314;2024-03-02T06:12:51;93965.31;;;25.34;54.63
31337;BME280;22846;42.654;23.314;2024-03-02T06:15:17;93960.00;;;25.31;54.66
31337;BME280;22846;42.654;23.314;2024-03-02T06:17:42;93969.00;;;25.31;54.46
31337;BME280;22846;42.654;23.314;2024-03-02T06:20:08;93969.75;;;25.32;54.88
31337;BME280;22846;42.654;23.314;2024-03-02T06:22:34;93963.81;;;25.33;55.20
31337;BME280;22846;42.654;23.314;2024-03-02T06:25:00;93955.59;;;25.33;54.75
31337;BME280;22846;42.654;23.314;2024-03-02T06:27:25;93968.50;;;25.42;54.53
31337;BME280;22846;42.654;23.314;2024-03-02T06:29:50;93961.53;;;25.41;54.30
31337;BME280;22846;42.654;23.314;2024-03-02T06:32:16;93961.84;;;25.34;54.38
31337;BME280;22846;42.654;23.314;2024-03-02T06:34:42;93969.56;;;25.35;54.57
31337;BME280;22846;42.654;23.314;2024-03-02T06:37:07;93969.00;;;25.31;54.68
31337;BME280;22846;42.654;23.314;2024-03-02T06:39:32;93974.75;;;25.33;54.44
31337;BME280;22846;42.654;23.314;2024-03-02T06:41:59;93969.00;;;25.31;54.83
31337;BME280;22846;42.654;23.314;2024-03-02T06:44:25;93965.19;;;25.29;54.95
31337;BME280;22846;42.654;23.314;2024-03-02T06:46:50;93969.56;;;25.35;54.99
31337;BME280;22846;42.654;23.314;2024-03-02T06:49:15;93981.13;;;25.39;54.38
31337;BME280;22846;42.654;23.314;2024-03-02T06:51:43;93982.78;;;25.37;54.17
31337;BME280;22846;42.654;23.314;2024-03-02T06:54:08;93981.00;;;25.34;54.26
31337;BME280;22846;42.654;23.314;2024-03-02T06:56:34;93971.59;;;25.26;54.31
31337;BME280;22846;42.654;23.314;2024-03-02T06:58:59;93983.88;;;25.30;54.39
31337;BME280;22846;42.654;23.314;2024-03-02T07:01:25;93987.38;;;25.31;54.38
31337;BME280;22846;42.654;23.314;2024-03-02T07:03:51;93986.91;;;25.32;54.84
31337;BME280;22846;42.654;23.314;2024-03-02T07:06:17;93987.97;;;25.35;54.74
31337;BME280;22846;42.654;23.314;2024-03-02T07:08:42;93975.19;;;25.41;54.54
31337;BME280;22846;42.654;23.314;2024-03-02T07:11:08;93990.41;;;25.42;54.09
31337;BME280;22846;42.654;23.314;2024-03-02T07:13:33;93982.78;;;25.37;53.99
31337;BME280;22846;42.654;23.314;2024-03-02T07:15:58;93993.44;;;25.35;54.24
31337;BME280;22846;42.654;23.314;2024-03-02T07:18:26;93992.69;;;25.34;54.21
31337;BME280;22846;42.654;23.314;2024-03-02T07:20:52;93994.34;;;25.32;53.90
31337;BME280;22846;42.654;23.314;2024-03-02T07:23:17;93987.06;;;25.29;54.64
31337;BME280;22846;42.654;23.314;2024-03-02T07:25:43;93996.63;;;25.33;54.32
31337;BME280;22846;42.654;23.314;2024-03-02T07:28:08;93994.19;;;25.35;54.63
31337;BME280;22846;42.654;23.314;2024-03-02T07:30:34;94004.22;;;25.38;54.29
31337;BME280;22846;42.654;23.314;2024-03-02T07:32:59;93994.66;;;25.34;54.16
31337;BME280;22846;42.654;23.314;2024-03-02T07:35:25;93997.84;;;25.32;53.97
31337;BME280;22846;42.654;23.314;2024-03-02T07:37:54;93998.31;;;25.31;54.29
31337;BME280;22846;42.654;23.314;2024-03-02T07:40:20;93996.47;;;25.28;54.42
31337;BME280;22846;42.654;23.314;2024-03-02T07:42:46;94004.25;;;25.29;54.60
31337;BME280;22846;42.654;23.314;2024-03-02T07:45:11;94004.56;;;25.31;55.50
31337;BME280;22846;42.654;23.314;2024-03-02T07:47:36;94005.91;;;25.36;56.01
31337;BME280;22846;42.654;23.314;2024-03-02T07:50:02;94009.53;;;25.42;55.77
31337;BME280;22846;42.654;23.314;2024-03-02T07:52:31;93990.41;;;25.33;56.07
31337;BME280;22846;42.654;23.314;2024-03-02T07:54:56;94011.38;;;25.45;55.83
31337;BME280;22846;42.654;23.314;2024-03-02T07:57:22;93997.56;;;25.30;55.26
31337;BME280;22846;42.654;23.314;2024-03-02T07:59:47;94017.44;;;25.40;55.35
31337;BME280;22846;42.654;23.314;2024-03-02T08:02:14;94010.44;;;25.39;55.25
31337;BME280;22846;42.654;23.314;2024-03-02T08:04:40;93996.63;;;25.24;54.78
31337;BME280;22846;42.654;23.314;2024-03-02T08:07:06;94020.19;;;25.40;55.03
31337;BME280;22846;42.654;23.314;2024-03-02T08:09:31;94015.47;;;25.40;54.58
31337;BME280;22846;42.654;23.314;2024-03-02T08:11:56;94015.47;;;25.40;54.49
31337;BME280;22846;42.654;23.314;2024-03-02T08:14:23;94015.00;;;25.42;54.80
31337;BME280;22846;42.654;23.314;2024-03-02T08:16:49;94027.78;;;25.45;54.18
31337;BME280;22846;42.654;23.314;2024-03-02T08:19:14;94024.44;;;25.41;54.15
31337;BME280;22846;42.654;23.314;2024-03-02T08:21:40;94029.00;;;25.44;54.19
31337;BME280;22846;42.654;23.314;2024-03-02T08:24:06;94014.41;;;25.38;53.65
31337;BME280;22846;42.654;23.314;2024-03-02T08:26:32;94023.38;;;25.38;51.04
31337;BME280;22846;42.654;23.314;2024-03-02T08:28:58;94016.72;;;25.30;46.26
31337;BME280;22846;42.654;23.314;2024-03-02T08:31:24;94005.63;;;25.16;45.29
31337;BME280;22846;42.654;23.314;2024-03-02T08:33:49;94011.56;;;25.14;47.26
31337;BME280;22846;42.654;23.314;2024-03-02T08:36:15;94017.78;;;25.15;47.45
31337;BME280;22846;42.654;23.314;2024-03-02T08:38:41;94016.09;;;25.17;48.71
31337;BME280;22846;42.654;23.314;2024-03-02T08:41:06;94016.56;;;25.25;48.85
31337;BME280;22846;42.654;23.314;2024-03-02T08:43:32;94017.31;;;25.25;45.00
31337;BME280;22846;42.654;23.314;2024-03-02T08:45:58;94009.88;;;25.17;45.83
31337;BME280;22846;42.654;23.314;2024-03-02T08:48:24;94008.03;;;25.14;46.79
31337;BME280;22846;42.654;23.314;2024-03-02T08:50:49;94008.94;;;25.20;47.33
31337;BME280;22846;42.654;23.314;2024-03-02T08:53:15;94018.66;;;25.21;47.05
31337;BME280;22846;42.654;23.314;2024-03-02T08:55:45;94006.81;;;25.24;47.81
31337;BME280;22846;42.654;23.314;2024-03-02T08:58:11;94011.06;;;25.34;48.20
31337;BME280;22846;42.654;23.314;2024-03-02T09:00:36;94016.97;;;25.41;48.91
31337;BME280;22846;42.654;23.314;2024-03-02T09:03:02;94018.34;;;25.46;48.71
31337;BME280;22846;42.654;23.314;2024-03-02T09:05:27;94012.44;;;25.47;48.76
31337;BME280;22846;42.654;23.314;2024-03-02T09:07:52;94022.91;;;25.49;48.81
31337;BME280;22846;42.654;23.314;2024-03-02T09:10:18;94015.59;;;25.46;48.43
31337;BME280;22846;42.654;23.314;2024-03-02T09:12:43;94015.59;;;25.46;48.59
31337;BME280;22846;42.654;23.314;2024-03-02T09:15:09;93995.09;;;25.32;48.62
31337;BME280;22846;42.654;23.314;2024-03-02T09:17:34;94026.84;;;25.48;49.36
31337;BME280;22846;42.654;23.314;2024-03-02T09:20:00;94025.94;;;25.51;49.56
31337;BME280;22846;42.654;23.314;2024-03-02T09:22:25;94016.97;;;25.50;49.37
31337;BME280;22846;42.654;23.314;2024-03-02T09:24:50;94027.63;;;25.48;49.26
31337;BME280;22846;42.654;23.314;2024-03-02T09:27:16;94027.00;;;25.44;49.13
31337;BME280;22846;42.654;23.314;2024-03-02T09:29:41;94027.63;;;25.39;49.10
31337;BME280;22846;42.654;23.314;2024-03-02T09:32:12;94027.47;;;25.43;49.38
31337;BME280;22846;42.654;23.314;2024-03-02T09:34:38;94015.03;;;25.33;49.87
31337;BME280;22846;42.654;23.314;2024-03-02T09:37:04;94032.50;;;25.35;41.47
31337;BME280;22846;42.654;23.314;2024-03-02T09:39:30;94026.72;;;25.15;37.23
31337;BME280;22846;42.654;23.314;2024-03-02T09:41:55;94032.28;;;24.85;36.46
31337;BME280;22846;42.654;23.314;2024-03-02T09:44:21;94034.06;;;24.52;36.24
31337;BME280;22846;42.654;23.314;2024-03-02T09:46:52;94036.81;;;24.22;39.09
31337;BME280;22846;42.654;23.314;2024-03-02T09:49:17;94028.13;;;24.05;43.29
31337;BME280;22846;42.654;23.314;2024-03-02T09:51:49;94036.78;;;24.13;44.91
31337;BME280;22846;42.654;23.314;2024-03-02T09:54:18;94035.00;;;24.19;45.92
31337;BME280;22846;42.654;23.314;2024-03-02T09:56:46;94028.97;;;24.33;46.26
31337;BME280;22846;42.654;23.314;2024-03-02T09:59:12;94032.63;;;24.39;46.44
31337;BME280;22846;42.654;23.314;2024-03-02T10:01:55;94028.91;;;24.54;46.94
31337;BME280;22846;42.654;23.314;2024-03-02T10:04:21;94029.84;;;24.69;47.00
31337;BME280;22846;42.654;23.314;2024-03-02T10:06:47;94035.97;;;24.82;46.97
31337;BME280;22846;42.654;23.314;2024-03-02T10:09:26;94037.50;;;24.92;47.38
31337;BME280;22846;42.654;23.314;2024-03-02T10:11:52;94034.88;;;24.97;47.37
31337;BME280;22846;42.654;23.314;2024-03-02T10:14:17;94033.84;;;25.04;47.56
31337;BME280;22846;42.654;23.314;2024-03-02T10:16:44;94035.19;;;25.08;47.55
31337;BME280;22846;42.654;23.314;2024-03-02T10:19:23;94026.69;;;25.06;47.71
31337;BME280;22846;42.654;23.314;2024-03-02T10:21:50;94020.31;;;25.00;48.35
31337;BME280;22846;42.654;23.314;2024-03-02T10:24:17;94017.44;;;25.04;48.35
31337;BME280;22846;42.654;23.314;2024-03-02T10:26:42;94020.78;;;25.08;48.56
31337;BME280;22846;42.654;23.314;2024-03-02T10:29:11;94031.13;;;25.13;48.65
31337;BME280;22846;42.654;23.314;2024-03-02T10:31:41;94029.03;;;25.17;48.10
31337;BME280;22846;42.654;23.314;2024-03-02T10:34:07;94023.25;;;25.15;48.43
31337;BME280;22846;42.654;23.314;2024-03-02T10:36:34;94023.25;;;25.15;48.39
31337;BME280;22846;42.654;23.314;2024-03-02T10:39:06;94025.66;;;25.13;48.80
31337;BME280;22846;42.654;23.314;2024-03-02T10:41:36;94030.53;;;25.18;48.82
31337;BME280;22846;42.654;23.314;2024-03-02T10:44:04;94038.28;;;25.19;48.92
31337;BME280;22846;42.654;23.314;2024-03-02T10:46:31;94032.66;;;25.23;48.93
31337;BME280;22846;42.654;23.314;2024-03-02T10:48:58;94003.03;;;25.12;48.92
31337;BME280;22846;42.654;23.314;2024-03-02T10:51:25;94021.88;;;25.28;49.11
31337;BME280;22846;42.654;23.314;2024-03-02T10:53:52;94022.34;;;25.27;49.11
31337;BME280;22846;42.654;23.314;2024-03-02T10:56:21;94010.31;;;25.24;49.55
31337;BME280;22846;42.654;23.314;2024-03-02T10:58:51;94024.75;;;25.25;49.37
31337;BME280;22846;42.654;23.314;2024-03-02T11:01:21;94014.41;;;25.20;49.47
31337;BME280;22846;42.654;23.314;2024-03-02T11:03:49;94019.59;;;25.27;49.34
31337;BME280;22846;42.654;23.314;2024-03-02T11:06:15;94004.84;;;25.24;48.53
31337;BME280;22846;42.654;23.314;2024-03-02T11:08:42;94016.88;;;25.27;48.80
31337;BME280;22846;42.654;23.314;2024-03-02T11:11:15;94013.34;;;25.26;48.96
31337;BME280;22846;42.654;23.314;2024-03-02T11:13:42;94015.34;;;25.26;49.34
31337;BME280;22846;42.654;23.314;2024-03-02T11:16:22;94008.03;;;25.23;49.36
31337;BME280;22846;42.654;23.314;2024-03-02T11:18:51;94005.16;;;25.26;48.98
31337;BME280;22846;42.654;23.314;2024-03-02T11:21:17;94004.41;;;25.26;49.22
31337;BME280;22846;42.654;23.314;2024-03-02T11:23:43;94016.84;;;25.36;49.49
31337;BME280;22846;42.654;23.314;2024-03-02T11:26:21;94008.03;;;25.41;49.75
31337;BME280;22846;42.654;23.314;2024-03-02T11:28:48;94007.28;;;25.40;49.23
31337;BME280;22846;42.654;23.314;2024-03-02T11:31:14;93999.66;;;25.35;49.72
31337;BME280;22846;42.654;23.314;2024-03-02T11:33:39;93999.66;;;25.35;49.52
31337;BME280;22846;42.654;23.314;2024-03-02T11:36:08;94001.03;;;25.40;49.50
31337;BME280;22846;42.654;23.314;2024-03-02T11:38:35;93995.09;;;25.41;49.92
31337;BME280;22846;42.654;23.314;2024-03-02T11:41:06;94002.56;;;25.41;49.79
31337;BME280;22846;42.654;23.314;2024-03-02T11:43:38;94012.44;;;25.47;49.90
31337;BME280;22846;42.654;23.314;2024-03-02T11:46:05;94000.44;;;25.45;49.86
31337;BME280;22846;42.654;23.314;2024-03-02T11:48:38;94002.41;;;25.44;49.68
31337;BME280;22846;42.654;23.314;2024-03-02T11:51:04;94001.66;;;25.44;49.62
31337;BME280;22846;42.654;23.314;2024-03-02T11:53:30;93993.72;;;25.37;50.06
31337;BME280;22846;42.654;23.314;2024-03-02T11:55:58;93989.34;;;25.39;50.15
31337;BME280;22846;42.654;23.314;2024-03-02T11:58:24;94011.66;;;25.47;49.43
31337;BME280;22846;42.654;23.314;2024-03-02T12:00:55;94011.22;;;25.48;49.90
31337;BME280;22846;42.654;23.314;2024-03-02T12:03:25;94009.69;;;25.47;49.68
31337;BME280;22846;42.654;23.314;2024-03-02T12:05:52;94000.72;;;25.47;50.18
31337;BME280;22846;42.654;23.314;2024-03-02T12:08:18;94003.44;;;25.47;49.83
31337;BME280;22846;42.654;23.314;2024-03-02T12:10:56;94004.50;;;25.49;50.00
31337;BME280;22846;42.654;23.314;2024-03-02T12:13:21;94008.31;;;25.52;50.08
31337;BME280;22846;42.654;23.314;2024-03-02T12:15:48;93997.81;;;25.41;49.93
31337;BME280;22846;42.654;23.314;2024-03-02T12:18:17;94004.81;;;25.51;49.88
31337;BME280;22846;42.654;23.314;2024-03-02T12:20:43;94001.19;;;25.45;50.05
31337;BME280;22846;42.654;23.314;2024-03-02T12:23:09;94011.06;;;25.52;49.95
31337;BME280;22846;42.654;23.314;2024-03-02T12:25:35;94001.47;;;25.47;50.34
31337;BME280;22846;42.654;23.314;2024-03-02T12:28:01;94004.06;;;25.51;50.08
31337;BME280;22846;42.654;23.314;2024-03-02T12:30:30;93995.88;;;25.42;50.33
31337;BME280;22846;42.654;23.314;2024-03-02T12:32:56;94009.06;;;25.52;50.17
31337;BME280;22846;42.654;23.314;2024-03-02T12:35:21;94005.84;;;25.54;50.05
31337;BME280;22846;42.654;23.314;2024-03-02T12:37:52;93999.81;;;25.50;49.85
31337;BME280;22846;42.654;23.314;2024-03-02T12:40:18;94004.81;;;25.51;50.18
31337;BME280;22846;42.654;23.314;2024-03-02T12:42:47;94004.38;;;25.53;50.10
31337;BME280;22846;42.654;23.314;2024-03-02T12:45:13;93999.03;;;25.49;50.08
31337;BME280;22846;42.654;23.314;2024-03-02T12:47:40;94004.06;;;25.51;50.28
31337;BME280;22846;42.654;23.314;2024-03-02T12:50:06;94006.03;;;25.50;50.26